createdAt,value
2019-04-29T00:00:41.386Z,1014.81
2019-04-29T00:01:41.382Z,1014.83
2019-04-29T00:02:41.371Z,1014.84
2019-04-29T00:03:41.369Z,1014.86
2019-04-29T00:04:41.359Z,1014.84
2019-04-29T00:05:41.350Z,1014.85
2019-04-29T00:06:41.351Z,1014.83
2019-04-29T00:07:41.339Z,1014.87
2019-04-29T00:08:41.333Z,1014.87
2019-04-29T00:09:41.325Z,1014.85
2019-04-29T00:10:41.314Z,1014.86
2019-04-29T00:11:41.309Z,1014.84
2019-04-29T00:12:41.305Z,1014.85
2019-04-29T00:13:41.300Z,1014.80
2019-04-29T00:14:41.284Z,1014.80
2019-04-29T00:15:41.281Z,1014.82
2019-04-29T00:16:41.272Z,1014.79
2019-04-29T00:17:41.265Z,1014.80
2019-04-29T00:18:41.263Z,1014.81
2019-04-29T00:19:41.247Z,1014.82
2019-04-29T00:20:41.246Z,1014.83
2019-04-29T00:21:41.236Z,1014.81
2019-04-29T00:22:41.231Z,1014.85
2019-04-29T00:23:41.222Z,1014.82
2019-04-29T00:24:41.210Z,1014.81
2019-04-29T00:25:41.205Z,1014.82
2019-04-29T00:26:41.196Z,1014.83
2019-04-29T00:27:41.189Z,1014.88
2019-04-29T00:28:41.181Z,1014.85
2019-04-29T00:29:41.177Z,1014.92
2019-04-29T00:30:41.177Z,1014.90
2019-04-29T00:31:41.164Z,1014.90
2019-04-29T00:32:41.160Z,1014.90
2019-04-29T00:33:41.143Z,1014.88
2019-04-29T00:34:41.147Z,1014.89
2019-04-29T00:35:41.132Z,1014.89
2019-04-29T00:36:41.128Z,1014.87
2019-04-29T00:37:41.115Z,1014.85
2019-04-29T00:38:41.108Z,1014.84
2019-04-29T00:39:41.112Z,1014.88
2019-04-29T00:40:41.092Z,1014.88
2019-04-29T00:41:41.086Z,1014.87
2019-04-29T00:42:41.078Z,1014.89
2019-04-29T00:43:41.070Z,1014.88
2019-04-29T00:44:41.066Z,1014.88
2019-04-29T00:45:41.061Z,1014.91
2019-04-29T00:46:41.051Z,1014.87
2019-04-29T00:47:41.047Z,1014.89
2019-04-29T00:48:41.040Z,1014.90
2019-04-29T00:49:41.032Z,1014.93
2019-04-29T00:50:41.020Z,1014.91
2019-04-29T00:51:41.013Z,1014.92
2019-04-29T00:52:41.008Z,1014.94
2019-04-29T00:53:40.994Z,1014.94
2019-04-29T00:54:40.990Z,1014.92
2019-04-29T00:55:41.052Z,1014.96
2019-04-29T00:56:40.981Z,1014.91
2019-04-29T00:57:40.972Z,1014.93
2019-04-29T00:58:40.958Z,1014.91
2019-04-29T00:59:40.953Z,1014.93
2019-04-29T01:00:40.943Z,1014.92
2019-04-29T01:01:40.935Z,1014.94
2019-04-29T01:02:40.941Z,1014.94
2019-04-29T01:03:41.317Z,1014.94
2019-04-29T01:04:40.918Z,1014.92
2019-04-29T01:05:40.912Z,1014.91
2019-04-29T01:06:40.908Z,1014.91
2019-04-29T01:07:40.897Z,1014.93
2019-04-29T01:08:40.887Z,1014.93
2019-04-29T01:09:40.874Z,1014.90
2019-04-29T01:10:40.871Z,1014.89
2019-04-29T01:11:40.866Z,1014.90
2019-04-29T01:12:40.859Z,1014.92
2019-04-29T01:13:40.846Z,1014.97
2019-04-29T01:14:40.838Z,1014.93
2019-04-29T01:15:40.836Z,1014.91
2019-04-29T01:16:40.826Z,1014.94
2019-04-29T01:17:40.820Z,1014.92
2019-04-29T01:18:40.816Z,1014.92
2019-04-29T01:19:40.800Z,1014.94
2019-04-29T01:20:40.800Z,1014.93
2019-04-29T01:21:40.791Z,1014.90
2019-04-29T01:22:40.779Z,1014.92
2019-04-29T01:23:40.774Z,1014.89
2019-04-29T01:24:40.762Z,1014.90
2019-04-29T01:25:40.754Z,1014.95
2019-04-29T01:26:40.747Z,1014.89
2019-04-29T01:27:40.746Z,1014.90
2019-04-29T01:28:40.735Z,1014.90
2019-04-29T01:29:40.729Z,1014.95
2019-04-29T01:30:40.721Z,1014.92
2019-04-29T01:31:40.712Z,1014.95
2019-04-29T01:32:40.702Z,1014.95
2019-04-29T01:33:40.694Z,1014.95
2019-04-29T01:34:40.693Z,1014.97
2019-04-29T01:35:40.681Z,1014.96
2019-04-29T01:36:40.678Z,1014.92
2019-04-29T01:37:40.667Z,1014.95
2019-04-29T01:38:40.656Z,1014.91
2019-04-29T01:39:40.656Z,1014.95
2019-04-29T01:40:40.643Z,1014.96
2019-04-29T01:41:40.639Z,1014.90
2019-04-29T01:42:40.631Z,1014.93
2019-04-29T01:43:40.622Z,1014.89
2019-04-29T01:44:40.619Z,1014.89
2019-04-29T01:45:40.607Z,1014.93
2019-04-29T01:46:40.602Z,1014.93
2019-04-29T01:47:40.592Z,1014.94
2019-04-29T01:48:40.586Z,1014.91
2019-04-29T01:49:40.572Z,1014.90
2019-04-29T01:50:40.573Z,1014.93
2019-04-29T01:51:40.564Z,1014.98
2019-04-29T01:52:40.550Z,1015.00
2019-04-29T01:53:40.540Z,1014.96
2019-04-29T01:54:40.551Z,1015.00
2019-04-29T01:55:40.530Z,1015.00
2019-04-29T01:56:40.521Z,1014.98
2019-04-29T01:57:40.519Z,1015.03
2019-04-29T01:58:40.507Z,1015.00
2019-04-29T01:59:40.499Z,1015.04
2019-04-29T02:00:40.488Z,1015.01
2019-04-29T02:01:40.478Z,1015.01
2019-04-29T02:02:40.479Z,1015.01
2019-04-29T02:03:40.463Z,1015.03
2019-04-29T02:04:40.463Z,1015.03
2019-04-29T02:05:40.450Z,1015.07
2019-04-29T02:06:40.447Z,1015.04
2019-04-29T02:07:40.435Z,1015.06
2019-04-29T02:08:40.428Z,1015.07
2019-04-29T02:09:40.418Z,1015.08
2019-04-29T02:10:40.417Z,1015.06
2019-04-29T02:11:40.402Z,1015.07
2019-04-29T02:12:40.401Z,1015.07
2019-04-29T02:13:40.388Z,1015.07
2019-04-29T02:14:40.384Z,1015.06
2019-04-29T02:15:40.378Z,1015.08
2019-04-29T02:16:40.371Z,1015.10
2019-04-29T02:17:40.363Z,1015.10
2019-04-29T02:18:40.355Z,1015.14
2019-04-29T02:19:40.340Z,1015.17
2019-04-29T02:20:40.331Z,1015.19
2019-04-29T02:21:40.325Z,1015.16
2019-04-29T02:22:40.321Z,1015.17
2019-04-29T02:23:40.308Z,1015.16
2019-04-29T02:24:40.306Z,1015.17
2019-04-29T02:25:40.297Z,1015.18
2019-04-29T02:26:40.292Z,1015.18
2019-04-29T02:27:40.277Z,1015.16
2019-04-29T02:28:40.277Z,1015.17
2019-04-29T02:29:40.271Z,1015.17
2019-04-29T02:30:40.254Z,1015.14
2019-04-29T02:31:40.380Z,1015.19
2019-04-29T02:32:40.238Z,1015.17
2019-04-29T02:33:40.229Z,1015.16
2019-04-29T02:34:40.230Z,1015.13
2019-04-29T02:35:40.218Z,1015.13
2019-04-29T02:36:40.344Z,1015.12
2019-04-29T02:37:40.200Z,1015.13
2019-04-29T02:38:40.191Z,1015.15
2019-04-29T02:39:40.188Z,1015.13
2019-04-29T02:40:40.179Z,1015.11
2019-04-29T02:41:40.210Z,1015.11
2019-04-29T02:42:40.166Z,1015.11
2019-04-29T02:43:40.158Z,1015.13
2019-04-29T02:44:40.154Z,1015.16
2019-04-29T02:45:40.141Z,1015.11
2019-04-29T02:46:40.137Z,1015.15
2019-04-29T02:47:40.127Z,1015.15
2019-04-29T02:48:40.112Z,1015.16
2019-04-29T02:49:40.107Z,1015.19
2019-04-29T02:50:40.103Z,1015.21
2019-04-29T02:51:40.092Z,1015.17
2019-04-29T02:52:40.087Z,1015.20
2019-04-29T02:53:40.077Z,1015.16
2019-04-29T02:54:40.068Z,1015.13
2019-04-29T02:55:40.061Z,1015.12
2019-04-29T02:56:40.053Z,1015.12
2019-04-29T02:57:40.044Z,1015.10
2019-04-29T02:58:40.033Z,1015.16
2019-04-29T02:59:40.029Z,1015.17
2019-04-29T03:00:40.024Z,1015.17
2019-04-29T03:01:40.018Z,1015.18
2019-04-29T03:02:40.002Z,1015.20
2019-04-29T03:03:39.995Z,1015.19
2019-04-29T03:04:39.989Z,1015.18
2019-04-29T03:05:40.139Z,1015.17
2019-04-29T03:06:39.980Z,1015.14
2019-04-29T03:07:39.963Z,1015.17
2019-04-29T03:08:39.959Z,1015.14
2019-04-29T03:09:39.957Z,1015.16
2019-04-29T03:10:39.940Z,1015.14
2019-04-29T03:11:39.936Z,1015.12
2019-04-29T03:12:39.934Z,1015.11
2019-04-29T03:13:39.915Z,1015.13
2019-04-29T03:14:39.909Z,1015.13
2019-04-29T03:15:39.899Z,1015.12
2019-04-29T03:16:39.891Z,1015.14
2019-04-29T03:17:39.885Z,1015.09
2019-04-29T03:18:39.883Z,1015.13
2019-04-29T03:19:39.869Z,1015.09
2019-04-29T03:20:39.881Z,1015.14
2019-04-29T03:21:39.857Z,1015.14
2019-04-29T03:22:39.852Z,1015.16
2019-04-29T03:23:39.841Z,1015.15
2019-04-29T03:24:39.829Z,1015.13
2019-04-29T03:25:39.825Z,1015.15
2019-04-29T03:26:39.826Z,1015.12
2019-04-29T03:27:39.806Z,1015.14
2019-04-29T03:28:39.806Z,1015.15
2019-04-29T03:29:39.788Z,1015.17
2019-04-29T03:30:39.808Z,1015.17
2019-04-29T03:31:40.163Z,1015.19
2019-04-29T03:32:39.863Z,1015.12
2019-04-29T03:33:39.759Z,1015.16
2019-04-29T03:34:39.757Z,1015.14
2019-04-29T03:35:39.746Z,1015.19
2019-04-29T03:36:39.738Z,1015.19
2019-04-29T03:37:39.736Z,1015.22
2019-04-29T03:38:39.719Z,1015.17
2019-04-29T03:39:39.707Z,1015.12
2019-04-29T03:40:39.701Z,1015.14
2019-04-29T03:41:39.700Z,1015.14
2019-04-29T03:42:39.693Z,1015.16
2019-04-29T03:43:39.679Z,1015.20
2019-04-29T03:44:39.675Z,1015.19
2019-04-29T03:45:39.668Z,1015.22
2019-04-29T03:46:39.655Z,1015.20
2019-04-29T03:47:39.651Z,1015.17
2019-04-29T03:48:39.644Z,1015.15
2019-04-29T03:49:39.636Z,1015.17
2019-04-29T03:50:39.623Z,1015.17
2019-04-29T03:51:39.613Z,1015.15
2019-04-29T03:52:39.609Z,1015.18
2019-04-29T03:53:39.600Z,1015.19
2019-04-29T03:54:39.596Z,1015.14
2019-04-29T03:55:40.660Z,1015.14
2019-04-29T03:56:39.579Z,1015.15
2019-04-29T03:57:39.563Z,1015.18
2019-04-29T03:58:39.563Z,1015.17
2019-04-29T03:59:39.554Z,1015.19
2019-04-29T04:00:43.904Z,1015.19
2019-04-29T04:01:39.541Z,1015.20
2019-04-29T04:02:39.526Z,1015.16
2019-04-29T04:03:39.515Z,1015.20
2019-04-29T04:04:39.517Z,1015.22
2019-04-29T04:05:39.504Z,1015.23
2019-04-29T04:06:39.494Z,1015.28
2019-04-29T04:07:39.487Z,1015.29
2019-04-29T04:08:39.480Z,1015.26
2019-04-29T04:09:39.468Z,1015.30
2019-04-29T04:10:39.465Z,1015.26
2019-04-29T04:11:39.459Z,1015.29
2019-04-29T04:12:39.452Z,1015.29
2019-04-29T04:13:39.443Z,1015.31
2019-04-29T04:14:39.430Z,1015.27
2019-04-29T04:15:39.431Z,1015.30
2019-04-29T04:16:39.413Z,1015.26
2019-04-29T04:17:39.405Z,1015.25
2019-04-29T04:18:39.400Z,1015.28
2019-04-29T04:19:39.393Z,1015.29
2019-04-29T04:20:39.387Z,1015.29
2019-04-29T04:21:39.375Z,1015.29
2019-04-29T04:22:39.370Z,1015.33
2019-04-29T04:23:39.355Z,1015.32
2019-04-29T04:24:39.352Z,1015.32
2019-04-29T04:25:39.337Z,1015.35
2019-04-29T04:26:39.349Z,1015.36
2019-04-29T04:27:39.335Z,1015.37
2019-04-29T04:28:39.324Z,1015.38
2019-04-29T04:29:39.319Z,1015.37
2019-04-29T04:30:39.305Z,1015.36
2019-04-29T04:31:39.298Z,1015.37
2019-04-29T04:32:39.289Z,1015.32
2019-04-29T04:33:39.277Z,1015.33
2019-04-29T04:34:39.271Z,1015.33
2019-04-29T04:35:39.266Z,1015.39
2019-04-29T04:36:39.259Z,1015.39
2019-04-29T04:37:39.243Z,1015.41
2019-04-29T04:38:39.238Z,1015.44
2019-04-29T04:39:39.230Z,1015.45
2019-04-29T04:40:39.226Z,1015.40
2019-04-29T04:41:39.215Z,1015.37
2019-04-29T04:42:39.204Z,1015.40
2019-04-29T04:43:39.199Z,1015.35
2019-04-29T04:44:39.186Z,1015.42
2019-04-29T04:45:39.180Z,1015.44
2019-04-29T04:46:39.169Z,1015.48
2019-04-29T04:47:39.162Z,1015.43
2019-04-29T04:48:39.162Z,1015.46
2019-04-29T04:49:39.151Z,1015.47
2019-04-29T04:50:39.139Z,1015.44
2019-04-29T04:51:39.180Z,1015.44
2019-04-29T04:52:39.128Z,1015.47
2019-04-29T04:53:39.115Z,1015.50
2019-04-29T04:54:39.108Z,1015.53
2019-04-29T04:55:39.106Z,1015.51
2019-04-29T04:56:39.096Z,1015.50
2019-04-29T04:57:39.084Z,1015.50
2019-04-29T04:58:39.075Z,1015.52
2019-04-29T04:59:39.073Z,1015.49
2019-04-29T05:00:39.070Z,1015.52
2019-04-29T05:01:39.055Z,1015.52
2019-04-29T05:02:39.047Z,1015.54
2019-04-29T05:03:39.044Z,1015.55
2019-04-29T05:04:39.035Z,1015.57
2019-04-29T05:05:39.028Z,1015.57
2019-04-29T05:06:39.016Z,1015.60
2019-04-29T05:07:39.010Z,1015.60
2019-04-29T05:08:39.001Z,1015.63
2019-04-29T05:09:38.989Z,1015.65
2019-04-29T05:10:38.987Z,1015.63
2019-04-29T05:11:38.980Z,1015.65
2019-04-29T05:12:38.976Z,1015.62
2019-04-29T05:13:38.958Z,1015.63
2019-04-29T05:14:38.951Z,1015.66
2019-04-29T05:15:38.946Z,1015.65
2019-04-29T05:16:38.940Z,1015.66
2019-04-29T05:17:38.938Z,1015.64
2019-04-29T05:18:38.926Z,1015.67
2019-04-29T05:19:38.914Z,1015.69
2019-04-29T05:20:38.913Z,1015.70
2019-04-29T05:21:38.907Z,1015.71
2019-04-29T05:22:38.897Z,1015.73
2019-04-29T05:23:41.517Z,1015.70
2019-04-29T05:24:38.879Z,1015.75
2019-04-29T05:25:38.869Z,1015.76
2019-04-29T05:26:38.868Z,1015.75
2019-04-29T05:27:38.860Z,1015.79
2019-04-29T05:28:38.851Z,1015.77
2019-04-29T05:29:38.846Z,1015.77
2019-04-29T05:30:38.841Z,1015.78
2019-04-29T05:31:38.830Z,1015.76
2019-04-29T05:32:38.825Z,1015.80
2019-04-29T05:33:38.812Z,1015.81
2019-04-29T05:34:41.678Z,1015.82
2019-04-29T05:35:40.439Z,1015.86
2019-04-29T05:36:39.390Z,1015.82
2019-04-29T05:37:38.787Z,1015.85
2019-04-29T05:38:38.781Z,1015.88
2019-04-29T05:39:38.765Z,1015.89
2019-04-29T05:40:38.767Z,1015.89
2019-04-29T05:41:38.764Z,1015.95
2019-04-29T05:42:38.752Z,1015.94
2019-04-29T05:43:38.737Z,1015.94
2019-04-29T05:44:38.732Z,1015.93
2019-04-29T05:45:41.553Z,1015.95
2019-04-29T05:46:38.726Z,1015.99
2019-04-29T05:47:38.716Z,1015.94
2019-04-29T05:48:38.711Z,1015.91
2019-04-29T05:49:41.620Z,1015.94
2019-04-29T05:50:38.696Z,1015.97
2019-04-29T05:51:38.687Z,1015.98
2019-04-29T05:52:39.448Z,1015.99
2019-04-29T05:53:38.680Z,1016.03
2019-04-29T05:54:38.663Z,1016.04
2019-04-29T05:55:38.662Z,1016.04
2019-04-29T05:56:38.659Z,1016.04
2019-04-29T05:57:38.649Z,1016.04
2019-04-29T05:58:39.608Z,1016.08
2019-04-29T05:59:38.647Z,1016.09
2019-04-29T06:00:38.630Z,1016.14
2019-04-29T06:01:38.618Z,1016.09
2019-04-29T06:02:38.974Z,1016.12
2019-04-29T06:03:39.819Z,1016.12
2019-04-29T06:04:38.619Z,1016.14
2019-04-29T06:05:38.600Z,1016.12
2019-04-29T06:06:38.591Z,1016.11
2019-04-29T06:07:38.585Z,1016.16
2019-04-29T06:08:39.493Z,1016.14
2019-04-29T06:09:38.572Z,1016.12
2019-04-29T06:10:41.810Z,1016.13
2019-04-29T06:11:38.559Z,1016.17
2019-04-29T06:12:38.560Z,1016.19
2019-04-29T06:13:38.554Z,1016.26
2019-04-29T06:14:38.547Z,1016.20
2019-04-29T06:15:38.616Z,1016.21
2019-04-29T06:16:38.531Z,1016.26
2019-04-29T06:17:40.071Z,1016.25
2019-04-29T06:18:40.874Z,1016.27
2019-04-29T06:19:39.374Z,1016.27
2019-04-29T06:20:38.511Z,1016.27
2019-04-29T06:21:38.505Z,1016.26
2019-04-29T06:22:41.846Z,1016.29
2019-04-29T06:23:38.499Z,1016.27
2019-04-29T06:24:41.206Z,1016.28
2019-04-29T06:25:38.492Z,1016.27
2019-04-29T06:26:38.482Z,1016.26
2019-04-29T06:27:38.478Z,1016.28
2019-04-29T06:28:38.472Z,1016.27
2019-04-29T06:29:38.461Z,1016.27
2019-04-29T06:30:40.586Z,1016.28
2019-04-29T06:31:38.458Z,1016.31
2019-04-29T06:32:38.446Z,1016.33
2019-04-29T06:33:38.445Z,1016.34
2019-04-29T06:34:40.040Z,1016.35
2019-04-29T06:35:38.437Z,1016.34
2019-04-29T06:36:38.432Z,1016.35
2019-04-29T06:37:38.428Z,1016.39
2019-04-29T06:38:38.424Z,1016.39
2019-04-29T06:39:38.419Z,1016.39
2019-04-29T06:40:38.412Z,1016.45
2019-04-29T06:41:43.507Z,1016.40
2019-04-29T06:42:38.403Z,1016.42
2019-04-29T06:43:38.394Z,1016.43
2019-04-29T06:44:38.389Z,1016.43
2019-04-29T06:45:38.386Z,1016.45
2019-04-29T06:46:38.383Z,1016.43
2019-04-29T06:47:38.376Z,1016.44
2019-04-29T06:48:38.374Z,1016.47
2019-04-29T06:49:38.372Z,1016.48
2019-04-29T06:50:38.369Z,1016.49
2019-04-29T06:51:38.363Z,1016.49
2019-04-29T06:52:38.361Z,1016.51
2019-04-29T06:53:38.356Z,1016.51
2019-04-29T06:54:38.353Z,1016.52
2019-04-29T06:55:38.341Z,1016.53
2019-04-29T06:56:38.337Z,1016.57
2019-04-29T06:57:38.337Z,1016.59
2019-04-29T06:58:38.565Z,1016.61
2019-04-29T06:59:38.329Z,1016.57
2019-04-29T07:00:38.319Z,1016.66
2019-04-29T07:01:38.753Z,1016.59
2019-04-29T07:02:38.310Z,1016.57
2019-04-29T07:03:38.312Z,1016.60
2019-04-29T07:04:39.515Z,1016.57
2019-04-29T07:05:38.298Z,1016.55
2019-04-29T07:06:38.295Z,1016.55
2019-04-29T07:07:38.291Z,1016.51
2019-04-29T07:08:38.287Z,1016.52
2019-04-29T07:09:38.287Z,1016.52
2019-04-29T07:10:38.283Z,1016.50
2019-04-29T07:11:38.560Z,1016.51
2019-04-29T07:12:38.286Z,1016.48
2019-04-29T07:13:38.265Z,1016.50
2019-04-29T07:14:38.793Z,1016.45
2019-04-29T07:15:38.259Z,1016.47
2019-04-29T07:16:38.256Z,1016.45
2019-04-29T07:17:41.314Z,1016.43
2019-04-29T07:18:40.356Z,1016.41
2019-04-29T07:19:38.249Z,1016.44
2019-04-29T07:20:38.814Z,1016.43
2019-04-29T07:21:41.827Z,1016.43
2019-04-29T07:22:38.234Z,1016.42
2019-04-29T07:23:38.225Z,1016.43
2019-04-29T07:24:38.263Z,1016.39
2019-04-29T07:25:38.217Z,1016.46
2019-04-29T07:26:38.217Z,1016.45
2019-04-29T07:27:43.035Z,1016.50
2019-04-29T07:28:38.214Z,1016.50
2019-04-29T07:29:38.359Z,1016.49
2019-04-29T07:30:59.890Z,1016.53
2019-04-29T07:31:38.203Z,1016.54
2019-04-29T07:32:42.207Z,1016.55
2019-04-29T07:33:38.194Z,1016.56
2019-04-29T07:34:39.568Z,1016.58
2019-04-29T07:35:38.477Z,1016.59
2019-04-29T07:36:38.185Z,1016.58
2019-04-29T07:37:38.183Z,1016.57
2019-04-29T07:38:41.514Z,1016.61
2019-04-29T07:39:38.169Z,1016.61
2019-04-29T07:40:38.755Z,1016.59
2019-04-29T07:41:38.167Z,1016.56
2019-04-29T07:42:38.168Z,1016.63
2019-04-29T07:43:38.645Z,1016.65
2019-04-29T07:44:44.152Z,1016.69
2019-04-29T07:45:44.254Z,1016.71
2019-04-29T07:46:55.722Z,1016.71
2019-04-29T07:47:38.149Z,1016.66
2019-04-29T07:48:42.039Z,1016.67
2019-04-29T07:49:38.146Z,1016.68
2019-04-29T07:50:38.143Z,1016.78
2019-04-29T07:51:39.539Z,1016.76
2019-04-29T07:52:38.142Z,1016.77
2019-04-29T07:53:45.275Z,1016.77
2019-04-29T07:54:38.136Z,1016.75
2019-04-29T07:55:38.135Z,1016.81
2019-04-29T07:56:42.488Z,1016.80
2019-04-29T07:57:38.125Z,1016.78
2019-04-29T07:58:38.129Z,1016.82
2019-04-29T07:59:39.620Z,1016.82
2019-04-29T08:00:38.123Z,1016.81
2019-04-29T08:01:38.119Z,1016.80
2019-04-29T08:02:38.120Z,1016.85
2019-04-29T08:03:38.116Z,1016.83
2019-04-29T08:04:40.403Z,1016.81
2019-04-29T08:05:38.119Z,1016.81
2019-04-29T08:06:42.272Z,1016.82
2019-04-29T08:07:38.117Z,1016.85
2019-04-29T08:08:38.113Z,1016.89
2019-04-29T08:09:39.830Z,1016.84
2019-04-29T08:10:52.221Z,1016.83
2019-04-29T08:11:38.106Z,1016.89
2019-04-29T08:12:38.109Z,1016.88
2019-04-29T08:13:38.108Z,1016.87
2019-04-29T08:14:38.109Z,1016.90
2019-04-29T08:15:41.430Z,1016.87
2019-04-29T08:16:38.098Z,1016.79
2019-04-29T08:17:38.106Z,1016.77
2019-04-29T08:18:38.104Z,1016.78
2019-04-29T08:19:38.101Z,1016.80
2019-04-29T08:20:39.708Z,1016.75
2019-04-29T08:21:38.096Z,1016.75
2019-04-29T08:22:38.093Z,1016.77
2019-04-29T08:23:41.233Z,1016.75
2019-04-29T08:24:38.091Z,1016.75
2019-04-29T08:25:38.091Z,1016.73
2019-04-29T08:26:43.032Z,1016.76
2019-04-29T08:27:39.999Z,1016.78
2019-04-29T08:28:38.085Z,1016.77
2019-04-29T08:29:38.090Z,1016.72
2019-04-29T08:30:41.927Z,1016.73
2019-04-29T08:31:38.090Z,1016.73
2019-04-29T08:32:38.204Z,1016.68
2019-04-29T08:33:38.079Z,1016.70
2019-04-29T08:34:40.761Z,1016.70
2019-04-29T08:35:38.228Z,1016.66
2019-04-29T08:36:38.081Z,1016.66
2019-04-29T08:37:38.090Z,1016.66
2019-04-29T08:38:38.076Z,1016.67
2019-04-29T08:39:38.080Z,1016.70
2019-04-29T08:40:38.072Z,1016.68
2019-04-29T08:41:38.072Z,1016.67
2019-04-29T08:42:41.826Z,1016.68
2019-04-29T08:43:38.075Z,1016.71
2019-04-29T08:44:38.071Z,1016.68
2019-04-29T08:45:39.002Z,1016.67
2019-04-29T08:46:38.064Z,1016.68
2019-04-29T08:47:38.067Z,1016.71
2019-04-29T08:48:38.062Z,1016.67
2019-04-29T08:49:38.075Z,1016.74
2019-04-29T08:50:38.063Z,1016.71
2019-04-29T08:51:38.129Z,1016.71
2019-04-29T08:52:38.066Z,1016.76
2019-04-29T08:53:38.066Z,1016.74
2019-04-29T08:54:38.064Z,1016.71
2019-04-29T08:55:38.058Z,1016.72
2019-04-29T08:56:42.556Z,1016.75
2019-04-29T08:57:38.062Z,1016.72
2019-04-29T08:58:39.482Z,1016.75
2019-04-29T08:59:38.051Z,1016.77
2019-04-29T09:00:38.058Z,1016.77
2019-04-29T09:01:38.049Z,1016.79
2019-04-29T09:02:41.430Z,1016.75
2019-04-29T09:03:40.460Z,1016.79
2019-04-29T09:04:52.543Z,1016.78
2019-04-29T09:05:41.623Z,1016.82
2019-04-29T09:06:38.049Z,1016.87
2019-04-29T09:07:38.053Z,1016.85
2019-04-29T09:08:38.082Z,1016.92
2019-04-29T09:09:38.048Z,1016.88
2019-04-29T09:10:38.045Z,1016.86
2019-04-29T09:11:38.043Z,1016.84
2019-04-29T09:12:38.046Z,1016.89
2019-04-29T09:13:38.044Z,1016.90
2019-04-29T09:14:38.041Z,1016.87
2019-04-29T09:15:38.046Z,1016.86
2019-04-29T09:16:38.048Z,1016.86
2019-04-29T09:17:38.040Z,1016.87
2019-04-29T09:18:38.040Z,1016.86
2019-04-29T09:19:39.498Z,1016.85
2019-04-29T09:20:38.043Z,1016.87
2019-04-29T09:21:38.043Z,1016.83
2019-04-29T09:22:38.040Z,1016.87
2019-04-29T09:23:38.051Z,1016.87
2019-04-29T09:24:38.049Z,1016.88
2019-04-29T09:25:38.041Z,1016.91
2019-04-29T09:26:38.042Z,1016.89
2019-04-29T09:27:40.833Z,1016.92
2019-04-29T09:28:38.050Z,1016.95
2019-04-29T09:29:38.046Z,1016.94
2019-04-29T09:30:38.781Z,1016.94
2019-04-29T09:31:38.051Z,1016.97
2019-04-29T09:32:39.783Z,1016.94
2019-04-29T09:33:38.050Z,1016.92
2019-04-29T09:34:38.051Z,1016.96
2019-04-29T09:35:39.001Z,1016.96
2019-04-29T09:36:38.055Z,1016.96
2019-04-29T09:37:38.061Z,1016.89
2019-04-29T09:38:38.467Z,1016.96
2019-04-29T09:39:43.528Z,1016.85
2019-04-29T09:40:38.063Z,1016.89
2019-04-29T09:41:38.070Z,1016.83
2019-04-29T09:42:38.068Z,1016.88
2019-04-29T09:43:38.069Z,1016.85
2019-04-29T09:44:40.351Z,1016.84
2019-04-29T09:45:38.075Z,1016.83
2019-04-29T09:46:38.087Z,1016.76
2019-04-29T09:47:38.082Z,1016.79
2019-04-29T09:48:38.085Z,1016.79
2019-04-29T09:49:38.087Z,1016.79
2019-04-29T09:50:39.220Z,1016.80
2019-04-29T09:51:38.099Z,1016.77
2019-04-29T09:52:38.094Z,1016.73
2019-04-29T09:53:38.099Z,1016.74
2019-04-29T09:54:38.102Z,1016.76
2019-04-29T09:55:40.154Z,1016.74
2019-04-29T09:56:38.114Z,1016.77
2019-04-29T09:57:38.120Z,1016.73
2019-04-29T09:58:38.119Z,1016.81
2019-04-29T09:59:38.117Z,1016.77
2019-04-29T10:00:40.725Z,1016.73
2019-04-29T10:01:38.125Z,1016.74
2019-04-29T10:02:38.125Z,1016.76
2019-04-29T10:03:38.130Z,1016.71
2019-04-29T10:04:38.131Z,1016.71
2019-04-29T10:05:38.142Z,1016.66
2019-04-29T10:06:38.140Z,1016.66
2019-04-29T10:07:38.140Z,1016.70
2019-04-29T10:08:38.143Z,1016.73
2019-04-29T10:09:38.150Z,1016.72
2019-04-29T10:10:38.156Z,1016.74
2019-04-29T10:11:38.157Z,1016.75
2019-04-29T10:12:38.155Z,1016.76
2019-04-29T10:13:38.161Z,1016.72
2019-04-29T10:14:38.283Z,1016.74
2019-04-29T10:15:38.167Z,1016.75
2019-04-29T10:16:38.179Z,1016.74
2019-04-29T10:17:38.181Z,1016.63
2019-04-29T10:18:38.178Z,1016.65
2019-04-29T10:19:38.185Z,1016.61
2019-04-29T10:20:38.192Z,1016.54
2019-04-29T10:21:38.200Z,1016.53
2019-04-29T10:22:38.194Z,1016.53
2019-04-29T10:23:38.200Z,1016.54
2019-04-29T10:24:38.204Z,1016.57
2019-04-29T10:25:38.210Z,1016.57
2019-04-29T10:26:38.216Z,1016.50
2019-04-29T10:27:38.214Z,1016.50
2019-04-29T10:28:38.216Z,1016.48
2019-04-29T10:29:38.226Z,1016.48
2019-04-29T10:30:38.225Z,1016.42
2019-04-29T10:31:38.229Z,1016.46
2019-04-29T10:32:42.293Z,1016.47
2019-04-29T10:33:38.242Z,1016.44
2019-04-29T10:34:38.237Z,1016.47
2019-04-29T10:35:40.818Z,1016.45
2019-04-29T10:36:38.250Z,1016.46
2019-04-29T10:37:38.251Z,1016.44
2019-04-29T10:38:40.498Z,1016.45
2019-04-29T10:39:38.261Z,1016.44
2019-04-29T10:40:38.262Z,1016.44
2019-04-29T10:41:40.258Z,1016.42
2019-04-29T10:42:38.274Z,1016.43
2019-04-29T10:43:38.279Z,1016.41
2019-04-29T10:44:38.277Z,1016.36
2019-04-29T10:45:40.525Z,1016.45
2019-04-29T10:46:38.281Z,1016.39
2019-04-29T10:47:38.295Z,1016.37
2019-04-29T10:48:38.295Z,1016.38
2019-04-29T10:49:39.238Z,1016.39
2019-04-29T10:50:38.307Z,1016.35
2019-04-29T10:51:38.309Z,1016.36
2019-04-29T10:52:38.862Z,1016.36
2019-04-29T10:53:38.321Z,1016.37
2019-04-29T10:54:38.323Z,1016.38
2019-04-29T10:55:38.326Z,1016.33
2019-04-29T10:56:39.421Z,1016.36
2019-04-29T10:57:38.338Z,1016.33
2019-04-29T10:58:38.339Z,1016.34
2019-04-29T10:59:40.635Z,1016.28
2019-04-29T11:00:38.352Z,1016.30
2019-04-29T11:01:38.356Z,1016.30
2019-04-29T11:02:38.363Z,1016.33
2019-04-29T11:03:38.368Z,1016.34
2019-04-29T11:04:38.380Z,1016.30
2019-04-29T11:05:38.381Z,1016.35
2019-04-29T11:06:38.407Z,1016.33
2019-04-29T11:07:38.394Z,1016.32
2019-04-29T11:08:39.746Z,1016.30
2019-04-29T11:09:38.401Z,1016.30
2019-04-29T11:10:38.415Z,1016.28
2019-04-29T11:11:38.418Z,1016.28
2019-04-29T11:12:38.426Z,1016.28
2019-04-29T11:13:46.175Z,1016.29
2019-04-29T11:14:39.260Z,1016.24
2019-04-29T11:15:38.443Z,1016.28
2019-04-29T11:16:46.443Z,1016.26
2019-04-29T11:17:39.839Z,1016.26
2019-04-29T11:18:38.454Z,1016.23
2019-04-29T11:19:39.881Z,1016.28
2019-04-29T11:20:38.470Z,1016.24
2019-04-29T11:21:38.991Z,1016.25
2019-04-29T11:22:39.470Z,1016.16
2019-04-29T11:23:38.485Z,1016.12
2019-04-29T11:24:38.488Z,1016.14
2019-04-29T11:25:40.487Z,1016.11
2019-04-29T11:26:38.500Z,1016.13
2019-04-29T11:27:38.507Z,1016.15
2019-04-29T11:28:38.507Z,1016.12
2019-04-29T11:29:38.515Z,1016.10
2019-04-29T11:30:39.482Z,1016.09
2019-04-29T11:31:38.526Z,1016.09
2019-04-29T11:32:38.531Z,1016.11
2019-04-29T11:33:40.011Z,1016.11
2019-04-29T11:34:38.544Z,1016.14
2019-04-29T11:35:38.548Z,1016.15
2019-04-29T11:36:39.009Z,1016.09
2019-04-29T11:37:38.556Z,1016.11
2019-04-29T11:38:38.672Z,1016.07
2019-04-29T11:39:38.574Z,1016.05
2019-04-29T11:40:43.635Z,1016.08
2019-04-29T11:41:38.582Z,1016.02
2019-04-29T11:42:41.732Z,1016.02
2019-04-29T11:43:38.591Z,1015.99
2019-04-29T11:44:38.597Z,1015.99
2019-04-29T11:45:40.324Z,1015.99
2019-04-29T11:46:38.607Z,1015.96
2019-04-29T11:47:38.613Z,1015.96
2019-04-29T11:48:38.620Z,1016.00
2019-04-29T11:49:38.626Z,1015.95
2019-04-29T11:50:38.638Z,1015.98
2019-04-29T11:51:55.752Z,1015.97
2019-04-29T11:52:38.646Z,1015.95
2019-04-29T11:53:38.660Z,1015.93
2019-04-29T11:54:38.659Z,1015.91
2019-04-29T11:55:38.667Z,1015.94
2019-04-29T11:56:39.817Z,1015.95
2019-04-29T11:57:41.152Z,1015.94
2019-04-29T11:58:38.689Z,1015.94
2019-04-29T11:59:38.695Z,1015.97
2019-04-29T12:00:38.701Z,1015.95
2019-04-29T12:01:42.805Z,1016.00
2019-04-29T12:02:45.510Z,1016.03
2019-04-29T12:03:38.731Z,1016.04
2019-04-29T12:04:41.934Z,1016.03
2019-04-29T12:05:40.107Z,1016.02